Terminal Aerodrome Forecast
Issued by NWS

Current Version | Previous Version | Text Only | Print | Product List | Glossary On
Versions: 1 2 3 4 5 6 7 8 9 10 11 12
000
FTAK31 PAFA 191139
TAFATA
TAF
PATA 191139Z 1912/2012 15006KT P6SM SKC
     FM191900 09013G20KT P6SM BKN250
     FM200400 03006KT P6SM FEW250=

USA.gov is the U.S. government's official web portal to all federal, state and local government web resources and services.